Time;durP1;ratioP1;P1;durP2;ratioP2;P2;SDS_P1;SDS_P2;PMS_P1;PMS_P2;Temp;Humidity;BMP_temperature;BMP_pressure;BME280_temperature;BME280_humidity;BME280_pressure;Samples;Min_cycle;Max_cycle;Signal;HPM_P1;HPM_P2
2023/08/21 00:00:45;;;;;;;11.53;6.87;;;;;;;;;;4977734;28;20420;-91
2023/08/21 00:03:11;;;;;;;7.63;6.67;;;;;;;;;;4963323;28;20493;-92
2023/08/21 00:05:40;;;;;;;9.00;8.10;;;;;;;;;;4949326;28;20482;-91
2023/08/21 00:08:06;;;;;;;7.00;6.30;;;;;;;;;;4951799;29;20435;-90
2023/08/21 00:10:32;;;;;;;8.83;7.53;;;;;;;;;;4951372;28;20401;-91
2023/08/21 00:12:58;;;;;;;7.50;5.90;;;;;;;;;;4951584;28;20426;-92
2023/08/21 00:15:24;;;;;;;8.83;6.50;;;;;;;;;;4952094;28;20527;-91
2023/08/21 00:17:50;;;;;;;7.17;6.47;;;;;;;;;;4948147;28;20843;-92
2023/08/21 00:20:16;;;;;;;7.43;6.63;;;;;;;;;;4964104;28;20434;-90
2023/08/21 00:22:42;;;;;;;6.57;5.97;;;;;;;;;;4964537;28;20429;-90
2023/08/21 00:25:08;;;;;;;8.40;6.67;;;;;;;;;;4954942;29;20522;-91
2023/08/21 00:27:34;;;;;;;7.30;6.60;;;;;;;;;;4950473;28;20437;-91
2023/08/21 00:30:00;;;;;;;9.73;6.97;;;;;;;;;;4951285;28;20433;-91
2023/08/21 00:32:26;;;;;;;6.93;6.23;;;;;;;;;;4958415;28;20460;-90
2023/08/21 00:34:52;;;;;;;15.10;7.20;;;;;;;;;;4949024;28;20454;-91
2023/08/21 00:37:19;;;;;;;7.17;6.47;;;;;;;;;;4952642;28;20438;-90
2023/08/21 00:39:45;;;;;;;7.33;6.60;;;;;;;;;;4950457;28;21024;-91
2023/08/21 00:42:12;;;;;;;8.17;6.70;;;;;;;;;;4956942;28;20434;-91
2023/08/21 00:44:38;;;;;;;8.17;7.37;;;;;;;;;;4947643;28;20457;-91
2023/08/21 00:47:04;;;;;;;9.47;7.53;;;;;;;;;;4969355;28;20426;-91
2023/08/21 00:49:30;;;;;;;8.40;7.17;;;;;;;;;;4946176;28;20434;-90
2023/08/21 00:51:56;;;;;;;7.77;6.73;;;;;;;;;;4951770;28;20438;-91
2023/08/21 00:54:22;;;;;;;8.50;7.20;;;;;;;;;;4964124;28;20564;-91
2023/08/21 00:56:50;;;;;;;7.73;6.90;;;;;;;;;;4954852;28;20445;-91
2023/08/21 00:59:16;;;;;;;7.13;6.43;;;;;;;;;;4947396;28;20470;-91
2023/08/21 01:01:42;;;;;;;8.07;6.93;;;;;;;;;;4949260;28;20469;-91
2023/08/21 01:04:09;;;;;;;8.40;7.60;;;;;;;;;;4951781;28;20543;-91
2023/08/21 01:06:35;;;;;;;10.80;7.50;;;;;;;;;;4944423;28;20941;-92
2023/08/21 01:09:01;;;;;;;8.23;7.30;;;;;;;;;;4949438;28;20434;-91
2023/08/21 01:11:32;;;;;;;14.13;8.00;;;;;;;;;;4965081;28;20187;-91
2023/08/21 01:14:08;;;;;;;8.17;7.37;;;;;;;;;;4953767;28;20448;-91
2023/08/21 01:16:33;;;;;;;8.87;6.83;;;;;;;;;;4939700;28;20944;-91
2023/08/21 01:19:00;;;;;;;8.33;6.87;;;;;;;;;;4951250;28;20471;-91
2023/08/21 01:21:26;;;;;;;7.63;6.83;;;;;;;;;;4948002;28;20428;-91
2023/08/21 01:23:52;;;;;;;8.17;7.37;;;;;;;;;;4952128;28;20433;-91
2023/08/21 01:26:18;;;;;;;7.30;6.60;;;;;;;;;;4954102;28;20465;-91
2023/08/21 01:28:44;;;;;;;9.77;6.43;;;;;;;;;;4954662;28;20452;-91
2023/08/21 01:31:24;;;;;;;7.70;6.67;;;;;;;;;;4943912;28;20439;-91
2023/08/21 01:33:58;;;;;;;7.20;6.50;;;;;;;;;;4954441;28;20477;-91
2023/08/21 01:36:24;;;;;;;7.60;6.90;;;;;;;;;;4950063;28;20406;-91
2023/08/21 01:38:50;;;;;;;10.70;7.00;;;;;;;;;;4950181;28;20414;-91
2023/08/21 01:41:16;;;;;;;7.00;6.30;;;;;;;;;;4949862;28;20440;-91
2023/08/21 01:43:42;;;;;;;10.27;7.80;;;;;;;;;;4947122;28;20426;-91
2023/08/21 01:46:08;;;;;;;7.60;6.80;;;;;;;;;;4952222;28;20437;-91
2023/08/21 01:48:35;;;;;;;8.23;7.03;;;;;;;;;;4966395;28;20429;-91
2023/08/21 01:51:02;;;;;;;11.70;6.60;;;;;;;;;;4951806;28;20929;-92
2023/08/21 01:53:28;;;;;;;9.20;6.83;;;;;;;;;;4947926;28;20451;-91
2023/08/21 01:55:54;;;;;;;9.20;7.00;;;;;;;;;;4955390;28;20545;-91
2023/08/21 01:58:20;;;;;;;7.97;6.87;;;;;;;;;;4948976;28;20486;-91
2023/08/21 02:00:49;;;;;;;11.10;6.70;;;;;;;;;;4948025;28;20434;-91
2023/08/21 02:03:15;;;;;;;7.43;6.53;;;;;;;;;;4963217;28;20446;-91
2023/08/21 02:05:41;;;;;;;12.20;7.10;;;;;;;;;;4951463;28;20457;-91
2023/08/21 02:08:07;;;;;;;7.90;6.70;;;;;;;;;;4954763;28;20449;-91
2023/08/21 02:10:33;;;;;;;8.63;6.33;;;;;;;;;;4948821;28;20441;-91
2023/08/21 02:12:59;;;;;;;9.10;7.70;;;;;;;;;;4950458;28;20433;-91
2023/08/21 02:15:25;;;;;;;10.73;7.47;;;;;;;;;;4949170;28;20465;-91
2023/08/21 02:17:51;;;;;;;9.53;8.27;;;;;;;;;;4955083;28;20838;-91
2023/08/21 02:20:17;;;;;;;8.33;7.37;;;;;;;;;;4963889;28;20447;-91
2023/08/21 02:22:43;;;;;;;7.97;6.80;;;;;;;;;;4953579;28;20441;-91
2023/08/21 02:25:09;;;;;;;7.70;6.90;;;;;;;;;;4949710;28;20484;-91
2023/08/21 02:27:35;;;;;;;8.13;7.30;;;;;;;;;;4951845;28;20448;-91
2023/08/21 02:30:01;;;;;;;9.53;8.53;;;;;;;;;;4953570;28;20430;-91
2023/08/21 02:32:27;;;;;;;15.73;7.23;;;;;;;;;;4951823;28;20414;-91
2023/08/21 02:34:53;;;;;;;7.83;6.73;;;;;;;;;;4949214;29;20517;-91
2023/08/21 02:37:19;;;;;;;9.10;7.63;;;;;;;;;;4945858;28;20561;-91
2023/08/21 02:39:45;;;;;;;9.67;7.13;;;;;;;;;;4953945;28;20433;-91
2023/08/21 02:42:11;;;;;;;8.40;7.27;;;;;;;;;;4947171;28;20433;-91
2023/08/21 02:44:37;;;;;;;8.10;7.17;;;;;;;;;;4954946;28;20432;-91
2023/08/21 02:47:03;;;;;;;7.40;5.93;;;;;;;;;;4949932;28;20439;-91
2023/08/21 02:49:29;;;;;;;10.80;7.70;;;;;;;;;;4953612;28;21060;-91
2023/08/21 02:51:55;;;;;;;9.53;7.33;;;;;;;;;;4949392;28;20433;-91
2023/08/21 02:54:21;;;;;;;8.63;7.30;;;;;;;;;;4957052;28;20461;-91
2023/08/21 02:56:48;;;;;;;8.30;6.53;;;;;;;;;;4955253;28;20512;-91
2023/08/21 02:59:14;;;;;;;9.97;8.07;;;;;;;;;;4952722;28;20441;-91
2023/08/21 03:01:39;;;;;;;9.17;8.27;;;;;;;;;;4952050;28;20426;-91
2023/08/21 03:04:06;;;;;;;7.50;6.70;;;;;;;;;;4955026;28;20484;-91
2023/08/21 03:06:32;;;;;;;9.30;7.30;;;;;;;;;;4952205;28;21010;-90
2023/08/21 03:09:01;;;;;;;13.30;7.77;;;;;;;;;;4972491;28;20453;-91
2023/08/21 03:11:28;;;;;;;13.27;7.93;;;;;;;;;;4982633;28;20465;-91
2023/08/21 03:13:55;;;;;;;8.30;7.47;;;;;;;;;;4953127;28;20457;-91
2023/08/21 03:16:21;;;;;;;9.23;8.27;;;;;;;;;;4958403;28;20406;-91
2023/08/21 03:18:55;;;;;;;9.17;8.30;;;;;;;;;;4949217;28;20422;-91
2023/08/21 03:21:22;;;;;;;7.60;6.87;;;;;;;;;;4949662;28;20418;-91
2023/08/21 03:23:50;;;;;;;7.53;6.70;;;;;;;;;;4950607;28;20409;-90
2023/08/21 03:26:16;;;;;;;8.80;7.50;;;;;;;;;;4947177;28;20492;-92
2023/08/21 03:28:41;;;;;;;8.20;7.40;;;;;;;;;;4953011;28;20422;-91
2023/08/21 03:31:08;;;;;;;8.10;7.30;;;;;;;;;;4953985;28;20442;-91
2023/08/21 03:33:34;;;;;;;8.63;7.10;;;;;;;;;;4948418;28;20504;-90
2023/08/21 03:35:59;;;;;;;10.53;7.60;;;;;;;;;;4962799;28;20457;-91
2023/08/21 03:38:26;;;;;;;8.93;8.03;;;;;;;;;;4948317;28;20535;-91
2023/08/21 03:40:52;;;;;;;9.73;7.47;;;;;;;;;;4955926;28;20948;-91
2023/08/21 03:43:18;;;;;;;13.60;7.40;;;;;;;;;;4963010;28;20437;-91
2023/08/21 03:45:44;;;;;;;7.57;6.67;;;;;;;;;;4975567;28;20485;-91
2023/08/21 03:48:10;;;;;;;10.17;7.53;;;;;;;;;;4957667;28;20449;-92
2023/08/21 03:50:36;;;;;;;11.67;7.20;;;;;;;;;;4949342;28;20410;-91
2023/08/21 03:53:02;;;;;;;8.57;7.30;;;;;;;;;;4942412;29;20451;-91
2023/08/21 03:55:28;;;;;;;9.90;7.63;;;;;;;;;;4967079;28;20465;-91
2023/08/21 03:57:54;;;;;;;8.03;6.70;;;;;;;;;;4960204;28;20461;-91
2023/08/21 04:00:20;;;;;;;9.10;8.20;;;;;;;;;;4948557;28;20499;-91
2023/08/21 04:02:46;;;;;;;10.10;7.23;;;;;;;;;;4967636;28;20525;-91
2023/08/21 04:05:12;;;;;;;10.00;7.73;;;;;;;;;;4953324;28;20421;-91
2023/08/21 04:07:38;;;;;;;8.53;7.67;;;;;;;;;;4954964;28;20443;-91
2023/08/21 04:10:04;;;;;;;8.10;7.30;;;;;;;;;;4954828;28;20783;-92
2023/08/21 04:12:30;;;;;;;8.30;6.67;;;;;;;;;;4948036;28;20468;-92
2023/08/21 04:14:56;;;;;;;10.47;8.30;;;;;;;;;;4949513;28;20458;-92
2023/08/21 04:17:24;;;;;;;9.60;7.97;;;;;;;;;;4925143;28;20528;-92
2023/08/21 04:19:53;;;;;;;7.93;7.13;;;;;;;;;;4951327;28;20421;-92
2023/08/21 04:22:19;;;;;;;9.77;8.07;;;;;;;;;;4950502;28;20429;-92
2023/08/21 04:24:45;;;;;;;8.53;7.63;;;;;;;;;;4952327;28;20418;-91
2023/08/21 04:27:11;;;;;;;9.87;8.63;;;;;;;;;;4954194;28;20437;-92
2023/08/21 04:29:37;;;;;;;8.53;7.50;;;;;;;;;;4957302;28;20433;-92
2023/08/21 04:32:03;;;;;;;9.83;8.20;;;;;;;;;;4950232;28;20418;-92
2023/08/21 04:34:29;;;;;;;7.90;6.50;;;;;;;;;;4952828;28;20472;-92
2023/08/21 04:36:55;;;;;;;7.47;6.73;;;;;;;;;;4950950;28;20434;-92
2023/08/21 04:39:21;;;;;;;7.67;6.90;;;;;;;;;;4952915;28;20418;-92
2023/08/21 04:41:47;;;;;;;8.70;7.90;;;;;;;;;;4954385;28;20418;-92
2023/08/21 04:44:13;;;;;;;10.07;9.07;;;;;;;;;;4954545;28;20436;-92
2023/08/21 04:46:39;;;;;;;12.07;8.20;;;;;;;;;;4955763;28;20430;-92
2023/08/21 04:49:06;;;;;;;11.57;8.00;;;;;;;;;;4948196;28;20491;-92
2023/08/21 04:51:32;;;;;;;10.27;8.43;;;;;;;;;;4931436;29;20431;-92
2023/08/21 04:53:59;;;;;;;10.17;6.90;;;;;;;;;;4911405;29;20424;-92
2023/08/21 04:56:25;;;;;;;8.33;7.53;;;;;;;;;;4910090;29;20476;-92
2023/08/21 04:58:52;;;;;;;8.97;7.77;;;;;;;;;;4911812;29;20481;-92
2023/08/21 05:01:17;;;;;;;8.13;7.30;;;;;;;;;;4911568;29;20424;-91
2023/08/21 05:03:43;;;;;;;8.73;7.93;;;;;;;;;;4921744;29;20918;-91
2023/08/21 05:06:09;;;;;;;9.23;8.17;;;;;;;;;;4924289;29;20494;-90
2023/08/21 05:08:35;;;;;;;10.83;8.13;;;;;;;;;;4918015;29;20821;-90
2023/08/21 05:11:01;;;;;;;9.30;8.20;;;;;;;;;;4910327;29;20456;-90
2023/08/21 05:13:27;;;;;;;10.20;9.10;;;;;;;;;;4908982;29;20445;-91
2023/08/21 05:15:54;;;;;;;11.00;8.77;;;;;;;;;;4924265;29;20550;-91
2023/08/21 05:18:20;;;;;;;10.80;8.53;;;;;;;;;;4909865;29;20535;-91
2023/08/21 05:20:49;;;;;;;8.10;7.20;;;;;;;;;;4917597;29;20439;-92
2023/08/21 05:23:15;;;;;;;16.60;7.70;;;;;;;;;;4979769;28;20449;-89
2023/08/21 05:25:44;;;;;;;10.53;8.40;;;;;;;;;;4953773;28;21012;-90
2023/08/21 05:28:10;;;;;;;8.60;7.67;;;;;;;;;;4956561;28;20937;-92
2023/08/21 05:30:37;;;;;;;8.80;7.90;;;;;;;;;;4946891;29;20529;-91
2023/08/21 05:33:05;;;;;;;9.90;8.73;;;;;;;;;;4990989;28;20439;-91
2023/08/21 05:35:35;;;;;;;10.60;8.63;;;;;;;;;;4946368;28;20981;-92
2023/08/21 05:38:01;;;;;;;11.37;10.37;;;;;;;;;;4955425;28;20942;-91
2023/08/21 05:40:27;;;;;;;10.83;9.60;;;;;;;;;;4958270;28;20472;-92
2023/08/21 05:42:53;;;;;;;10.60;8.93;;;;;;;;;;4952749;28;20481;-92
2023/08/21 05:45:19;;;;;;;8.63;7.40;;;;;;;;;;4957610;28;20421;-92
2023/08/21 05:47:46;;;;;;;11.50;8.70;;;;;;;;;;4966643;28;20717;-91
2023/08/21 05:50:12;;;;;;;9.80;7.80;;;;;;;;;;4954291;28;20421;-91
2023/08/21 05:52:38;;;;;;;10.70;8.23;;;;;;;;;;4969551;28;20566;-92
2023/08/21 05:55:05;;;;;;;8.93;8.03;;;;;;;;;;4956607;28;20945;-91
2023/08/21 05:57:31;;;;;;;9.10;8.20;;;;;;;;;;4958362;28;20486;-91
2023/08/21 05:59:57;;;;;;;9.40;7.87;;;;;;;;;;4944795;29;20450;-91
2023/08/21 06:02:24;;;;;;;9.77;8.20;;;;;;;;;;4949185;28;20437;-91
2023/08/21 06:04:50;;;;;;;10.03;7.80;;;;;;;;;;4956573;28;20441;-90
2023/08/21 06:07:16;;;;;;;11.77;7.70;;;;;;;;;;4978364;28;20433;-90
2023/08/21 06:09:42;;;;;;;9.30;8.00;;;;;;;;;;4967434;28;20410;-90
2023/08/21 06:12:08;;;;;;;8.20;7.13;;;;;;;;;;4952316;28;20925;-90
2023/08/21 06:14:35;;;;;;;8.73;7.60;;;;;;;;;;4926753;29;20456;-90
2023/08/21 06:17:01;;;;;;;9.47;7.03;;;;;;;;;;4923075;29;20440;-90
2023/08/21 06:19:28;;;;;;;11.17;8.50;;;;;;;;;;4916419;29;20444;-91
2023/08/21 06:21:54;;;;;;;7.83;6.93;;;;;;;;;;4890471;29;20442;-91
2023/08/21 10:37:35;;;;;;;6.17;5.67;;;;;;;;;;844053;23;20739;-90
2023/08/21 10:40:02;;;;;;;7.83;6.47;;;;;;;;;;4958202;28;20521;-93
2023/08/21 10:42:55;;;;;;;8.03;6.60;;;;;;;;;;4956713;28;21011;-93
2023/08/21 10:45:21;;;;;;;7.60;6.87;;;;;;;;;;4967319;29;20506;-94
2023/08/21 10:47:49;;;;;;;7.87;7.07;;;;;;;;;;4942104;29;20427;-92
2023/08/21 10:50:15;;;;;;;8.30;7.40;;;;;;;;;;4960362;28;20402;-93
2023/08/21 10:52:42;;;;;;;8.30;7.07;;;;;;;;;;4955307;28;20436;-93
2023/08/21 10:55:09;;;;;;;10.03;7.27;;;;;;;;;;4975103;28;20825;-94
2023/08/21 10:57:35;;;;;;;7.90;7.10;;;;;;;;;;4956443;28;20508;-92
2023/08/21 11:00:14;;;;;;;10.43;6.80;;;;;;;;;;4977813;28;20441;-93
2023/08/21 11:02:44;;;;;;;7.53;6.63;;;;;;;;;;4960143;28;20430;-93
2023/08/21 11:05:10;;;;;;;10.53;7.10;;;;;;;;;;4964035;28;20770;-92
2023/08/21 11:07:40;;;;;;;8.10;7.10;;;;;;;;;;4962784;28;20445;-93
2023/08/21 11:10:09;;;;;;;7.80;7.07;;;;;;;;;;4961094;28;20453;-93
2023/08/21 11:12:35;;;;;;;7.73;6.90;;;;;;;;;;4958408;28;20425;-93
2023/08/21 11:15:01;;;;;;;7.53;6.83;;;;;;;;;;4958650;28;20481;-93
2023/08/21 11:17:28;;;;;;;8.20;7.40;;;;;;;;;;4983694;28;20634;-94
2023/08/21 11:19:53;;;;;;;9.27;7.40;;;;;;;;;;4963549;28;20516;-92
2023/08/21 11:22:20;;;;;;;7.63;7.00;;;;;;;;;;4957198;28;20920;-93
2023/08/21 11:24:46;;;;;;;8.00;7.00;;;;;;;;;;4959651;28;20446;-92
2023/08/21 11:27:16;;;;;;;10.67;7.00;;;;;;;;;;4960600;28;20469;-93
2023/08/21 11:29:42;;;;;;;7.27;6.57;;;;;;;;;;4955842;28;20425;-92
2023/08/21 11:32:18;;;;;;;7.80;7.10;;;;;;;;;;4974037;28;20468;-94
2023/08/21 11:34:53;;;;;;;7.40;6.70;;;;;;;;;;4953712;28;20426;-92
2023/08/21 11:37:20;;;;;;;8.07;7.23;;;;;;;;;;4955596;28;20452;-91
2023/08/21 11:39:47;;;;;;;7.20;6.50;;;;;;;;;;4960418;28;20488;-92
2023/08/21 11:42:13;;;;;;;8.20;7.20;;;;;;;;;;4956474;28;20426;-93
2023/08/21 11:44:50;;;;;;;8.07;7.27;;;;;;;;;;4965326;28;20464;-92
2023/08/21 11:47:17;;;;;;;7.40;6.57;;;;;;;;;;4955631;28;20449;-93
2023/08/21 11:49:43;;;;;;;7.57;6.83;;;;;;;;;;4958157;28;20414;-92
2023/08/21 11:52:09;;;;;;;8.10;7.37;;;;;;;;;;4954705;28;20430;-93
2023/08/21 11:54:36;;;;;;;7.63;7.00;;;;;;;;;;4960782;28;20803;-92
2023/08/21 11:57:08;;;;;;;9.00;6.17;;;;;;;;;;4963288;28;20940;-93
2023/08/21 11:59:34;;;;;;;7.40;6.53;;;;;;;;;;4953234;28;20801;-94
2023/08/21 12:02:01;;;;;;;11.07;6.70;;;;;;;;;;4975090;28;20394;-93
2023/08/21 12:04:27;;;;;;;8.43;6.67;;;;;;;;;;4956223;28;20410;-93
2023/08/21 12:06:53;;;;;;;7.17;6.57;;;;;;;;;;4972396;28;20448;-93
2023/08/21 12:09:19;;;;;;;8.17;6.40;;;;;;;;;;4952623;28;20423;-92
2023/08/21 12:11:45;;;;;;;6.73;6.13;;;;;;;;;;4965809;28;20484;-92
2023/08/21 12:14:11;;;;;;;7.23;6.63;;;;;;;;;;4956434;28;20417;-93
2023/08/21 12:16:37;;;;;;;7.10;6.43;;;;;;;;;;4955327;28;20453;-92
2023/08/21 12:19:03;;;;;;;7.20;6.60;;;;;;;;;;4971496;28;20421;-90
2023/08/21 12:21:30;;;;;;;7.40;6.47;;;;;;;;;;4954233;28;20421;-91
2023/08/21 12:23:56;;;;;;;7.50;6.80;;;;;;;;;;4956962;28;21003;-91
2023/08/21 12:26:23;;;;;;;7.73;7.00;;;;;;;;;;4960800;28;20414;-91
2023/08/21 12:28:52;;;;;;;9.53;7.13;;;;;;;;;;4963822;28;20186;-90
2023/08/21 12:31:18;;;;;;;7.03;6.33;;;;;;;;;;4955753;28;20506;-90
2023/08/21 12:33:44;;;;;;;8.23;7.37;;;;;;;;;;4966437;28;20414;-90
2023/08/21 12:36:10;;;;;;;7.47;6.77;;;;;;;;;;4958149;28;20206;-89
2023/08/21 12:38:36;;;;;;;7.13;6.53;;;;;;;;;;4959717;28;20491;-91
2023/08/21 12:41:02;;;;;;;8.50;7.30;;;;;;;;;;4954568;28;20453;-91
2023/08/21 12:43:28;;;;;;;8.57;6.70;;;;;;;;;;4958749;28;20577;-90
2023/08/21 12:45:54;;;;;;;10.50;6.00;;;;;;;;;;4975116;28;20444;-90
2023/08/21 12:48:20;;;;;;;6.90;6.30;;;;;;;;;;4961466;28;20468;-91
2023/08/21 12:50:47;;;;;;;7.23;6.63;;;;;;;;;;4945110;29;21032;-91
2023/08/21 12:53:13;;;;;;;11.60;9.63;;;;;;;;;;4932795;29;20430;-93
2023/08/21 12:55:39;;;;;;;8.10;6.23;;;;;;;;;;4933197;28;20516;-91
2023/08/21 12:58:05;;;;;;;9.93;6.73;;;;;;;;;;4950593;28;20950;-91
2023/08/21 13:00:32;;;;;;;7.70;7.00;;;;;;;;;;4944779;28;20469;-90
2023/08/21 13:02:58;;;;;;;7.27;6.57;;;;;;;;;;4946228;28;20452;-91
2023/08/21 13:05:24;;;;;;;8.20;6.77;;;;;;;;;;4946952;28;20448;-91
2023/08/21 13:07:50;;;;;;;6.83;6.20;;;;;;;;;;4944458;28;20446;-90
2023/08/21 13:10:16;;;;;;;8.60;7.73;;;;;;;;;;4964068;28;20406;-91
2023/08/21 13:12:42;;;;;;;8.20;6.67;;;;;;;;;;4950756;28;20425;-90
2023/08/21 13:15:08;;;;;;;8.67;7.10;;;;;;;;;;4946092;28;20478;-91
2023/08/21 13:17:35;;;;;;;9.80;6.87;;;;;;;;;;4950268;28;20433;-90
2023/08/21 13:20:01;;;;;;;7.23;6.53;;;;;;;;;;4945107;28;20457;-92
2023/08/21 13:22:27;;;;;;;8.53;7.43;;;;;;;;;;4932362;29;20481;-91
2023/08/21 13:24:53;;;;;;;8.43;7.53;;;;;;;;;;4941710;28;20447;-90
2023/08/21 13:27:19;;;;;;;7.37;6.77;;;;;;;;;;4969252;28;20460;-91
2023/08/21 13:29:46;;;;;;;7.43;6.83;;;;;;;;;;4945809;28;20469;-91
2023/08/21 13:32:12;;;;;;;9.03;7.80;;;;;;;;;;4947649;28;20190;-91
2023/08/21 13:34:38;;;;;;;7.27;6.67;;;;;;;;;;4947044;28;20605;-93
2023/08/21 13:37:04;;;;;;;12.30;6.70;;;;;;;;;;4950278;28;20411;-91
2023/08/21 13:39:30;;;;;;;8.40;6.60;;;;;;;;;;4946822;28;20818;-92
2023/08/21 13:41:56;;;;;;;7.73;7.03;;;;;;;;;;4952477;28;20432;-91
2023/08/21 17:38:36;;;;;;;7.07;6.23;;;;;;;;;;876291;23;20751;-91
2023/08/21 17:41:03;;;;;;;7.40;6.40;;;;;;;;;;4957181;28;20892;-93
2023/08/21 17:43:29;;;;;;;7.63;6.87;;;;;;;;;;4966174;28;20980;-91
2023/08/21 17:46:01;;;;;;;8.73;6.10;;;;;;;;;;4969703;28;20940;-93
2023/08/21 17:48:27;;;;;;;9.10;6.70;;;;;;;;;;4999075;28;20450;-92
2023/08/21 17:50:53;;;;;;;7.00;6.07;;;;;;;;;;4965712;28;20967;-93
2023/08/21 17:53:19;;;;;;;8.63;6.20;;;;;;;;;;4952563;28;20429;-96
2023/08/21 17:55:47;;;;;;;9.47;5.90;;;;;;;;;;4959026;28;20468;-96
2023/08/21 17:58:14;;;;;;;10.40;5.50;;;;;;;;;;4977415;28;20428;-95
2023/08/21 18:00:41;;;;;;;8.17;6.27;;;;;;;;;;4969919;28;20469;-96
2023/08/21 18:03:08;;;;;;;7.33;5.77;;;;;;;;;;4987927;28;20409;-95
2023/08/21 18:05:34;;;;;;;7.37;6.67;;;;;;;;;;4953080;28;20481;-96
2023/08/21 18:08:00;;;;;;;10.13;6.50;;;;;;;;;;4954802;28;20426;-96
2023/08/21 18:10:29;;;;;;;7.70;6.73;;;;;;;;;;4953129;28;20543;-96
2023/08/21 18:12:54;;;;;;;8.20;6.70;;;;;;;;;;4953150;28;20462;-92
2023/08/21 18:15:20;;;;;;;6.23;5.63;;;;;;;;;;4936306;29;20482;-92
2023/08/21 18:17:46;;;;;;;8.33;7.23;;;;;;;;;;4939031;28;20453;-93
2023/08/21 18:20:13;;;;;;;11.83;7.23;;;;;;;;;;4933279;29;20442;-93
2023/08/21 18:22:38;;;;;;;6.07;5.47;;;;;;;;;;4937588;29;20446;-92
2023/08/21 18:25:05;;;;;;;7.33;6.63;;;;;;;;;;4935809;29;20436;-92
2023/08/21 18:27:31;;;;;;;7.00;6.27;;;;;;;;;;4939570;29;20462;-92
2023/08/21 18:29:58;;;;;;;7.53;6.73;;;;;;;;;;4930407;29;20475;-92
2023/08/21 18:32:24;;;;;;;7.37;6.37;;;;;;;;;;4949446;29;20438;-92
2023/08/21 18:34:50;;;;;;;7.73;6.40;;;;;;;;;;4947172;28;20464;-92
2023/08/21 18:37:16;;;;;;;8.70;7.77;;;;;;;;;;4954087;28;20838;-93
2023/08/21 18:39:42;;;;;;;9.93;6.80;;;;;;;;;;4975942;28;20457;-93
2023/08/21 18:42:08;;;;;;;8.13;6.80;;;;;;;;;;4971709;28;20432;-93
2023/08/21 18:44:34;;;;;;;8.97;8.07;;;;;;;;;;4971218;28;20462;-91
2023/08/21 18:47:01;;;;;;;13.77;7.13;;;;;;;;;;4971484;28;20967;-92
2023/08/21 18:49:27;;;;;;;7.57;6.77;;;;;;;;;;4967422;28;20501;-92
2023/08/21 18:51:53;;;;;;;10.40;6.50;;;;;;;;;;4972470;28;20510;-92
2023/08/21 18:54:23;;;;;;;8.20;6.70;;;;;;;;;;4977942;28;20446;-91
2023/08/21 18:56:49;;;;;;;8.70;7.60;;;;;;;;;;4975770;28;20470;-92
2023/08/21 18:59:15;;;;;;;8.27;7.30;;;;;;;;;;4971028;28;20475;-92
2023/08/21 19:01:42;;;;;;;11.00;7.80;;;;;;;;;;4965069;28;20442;-92
2023/08/21 19:04:08;;;;;;;9.73;7.80;;;;;;;;;;4966777;28;20501;-92
2023/08/21 19:06:34;;;;;;;8.57;7.67;;;;;;;;;;4967897;28;20429;-93
2023/08/21 19:09:00;;;;;;;8.60;6.73;;;;;;;;;;4962453;28;20453;-92
2023/08/21 19:11:26;;;;;;;8.87;6.57;;;;;;;;;;4959952;28;20442;-92
2023/08/21 19:13:54;;;;;;;9.03;7.17;;;;;;;;;;4970891;28;20482;-91
2023/08/21 19:16:21;;;;;;;8.13;6.57;;;;;;;;;;4967372;28;20454;-93
2023/08/21 19:18:47;;;;;;;9.37;7.23;;;;;;;;;;4966114;28;20449;-92
2023/08/21 19:21:13;;;;;;;7.10;6.40;;;;;;;;;;4967541;28;20469;-91
2023/08/21 19:23:39;;;;;;;8.50;7.60;;;;;;;;;;4983309;28;20458;-92
2023/08/21 19:26:05;;;;;;;8.57;7.17;;;;;;;;;;4967015;28;20473;-92
2023/08/21 19:28:31;;;;;;;9.40;6.80;;;;;;;;;;4970694;28;20890;-90
2023/08/21 19:30:57;;;;;;;9.00;7.00;;;;;;;;;;4975912;28;20470;-91
2023/08/21 19:33:25;;;;;;;8.67;7.60;;;;;;;;;;4956954;28;20458;-91
2023/08/21 19:35:50;;;;;;;10.37;6.80;;;;;;;;;;4985947;28;20507;-90
2023/08/21 19:38:18;;;;;;;7.10;6.50;;;;;;;;;;4968623;28;20461;-91
2023/08/21 19:40:47;;;;;;;8.77;7.47;;;;;;;;;;4977766;28;20429;-90
2023/08/21 19:43:13;;;;;;;11.03;7.00;;;;;;;;;;4972150;28;21219;-90
2023/08/21 19:45:39;;;;;;;9.90;7.10;;;;;;;;;;4966821;28;20448;-91
2023/08/21 19:48:05;;;;;;;9.23;7.70;;;;;;;;;;4981904;28;20473;-90
2023/08/21 19:50:33;;;;;;;8.07;7.27;;;;;;;;;;4974247;28;20445;-90
2023/08/21 19:52:59;;;;;;;10.33;8.20;;;;;;;;;;4967193;28;20501;-90
2023/08/21 19:55:25;;;;;;;7.87;7.13;;;;;;;;;;4971019;28;20537;-90
2023/08/21 19:57:51;;;;;;;7.73;6.57;;;;;;;;;;4962318;28;20438;-90
2023/08/21 20:00:28;;;;;;;9.80;6.87;;;;;;;;;;4969795;28;20461;-88
2023/08/21 20:02:55;;;;;;;7.73;6.07;;;;;;;;;;4981749;28;20464;-89
2023/08/21 20:05:21;;;;;;;10.27;7.73;;;;;;;;;;4962632;28;20450;-89
2023/08/21 20:07:47;;;;;;;8.63;6.83;;;;;;;;;;4981968;28;20995;-89
2023/08/21 20:10:13;;;;;;;8.87;7.60;;;;;;;;;;4947985;28;20453;-89
2023/08/21 20:12:39;;;;;;;8.83;7.93;;;;;;;;;;4959854;28;20426;-88
2023/08/21 20:15:05;;;;;;;7.53;6.83;;;;;;;;;;4956734;28;20442;-88
2023/08/21 20:17:31;;;;;;;7.53;6.50;;;;;;;;;;4961367;28;20466;-89
2023/08/21 20:19:57;;;;;;;10.00;7.73;;;;;;;;;;4961544;28;20445;-89
2023/08/21 20:22:23;;;;;;;8.80;6.73;;;;;;;;;;4980300;28;20426;-88
2023/08/21 20:24:49;;;;;;;8.63;7.70;;;;;;;;;;4969931;28;20591;-88
2023/08/21 20:27:15;;;;;;;9.07;7.23;;;;;;;;;;4963469;28;20450;-88
2023/08/21 20:29:41;;;;;;;11.40;7.40;;;;;;;;;;4970456;28;20446;-88
2023/08/21 20:32:07;;;;;;;9.87;7.87;;;;;;;;;;4965258;28;20449;-88
2023/08/21 20:34:37;;;;;;;9.63;7.90;;;;;;;;;;4974900;28;20414;-88
2023/08/21 20:37:03;;;;;;;8.27;7.47;;;;;;;;;;4964561;28;20462;-88
2023/08/21 20:39:31;;;;;;;9.83;7.33;;;;;;;;;;4984025;28;20460;-88
2023/08/21 20:41:58;;;;;;;8.30;7.50;;;;;;;;;;4969443;28;20442;-88
2023/08/21 20:47:22;;;;;;;11.43;8.13;;;;;;;;;;4915730;29;20444;-89
2023/08/21 20:49:48;;;;;;;8.20;7.37;;;;;;;;;;4902778;29;20865;-88
2023/08/21 20:52:14;;;;;;;12.93;7.40;;;;;;;;;;4910455;29;20449;-89
2023/08/21 20:54:41;;;;;;;14.83;7.43;;;;;;;;;;4910582;29;20428;-88
2023/08/21 20:57:07;;;;;;;8.83;7.40;;;;;;;;;;4923217;29;20847;-88
2023/08/21 20:59:34;;;;;;;8.33;7.50;;;;;;;;;;4912410;29;21698;-89
2023/08/21 21:02:01;;;;;;;8.63;7.70;;;;;;;;;;4917732;29;20443;-88
2023/08/21 21:04:29;;;;;;;7.20;6.50;;;;;;;;;;4909113;29;20444;-89
2023/08/21 21:06:55;;;;;;;10.53;8.33;;;;;;;;;;4917978;29;20448;-89
2023/08/21 21:09:24;;;;;;;9.10;7.10;;;;;;;;;;4903460;29;20441;-87
2023/08/21 21:11:51;;;;;;;9.03;6.83;;;;;;;;;;4906926;29;20993;-89
2023/08/21 21:14:17;;;;;;;8.90;6.70;;;;;;;;;;4906454;29;20437;-88
2023/08/21 21:16:43;;;;;;;9.00;7.30;;;;;;;;;;4906622;29;21056;-88
2023/08/21 21:19:14;;;;;;;9.13;7.17;;;;;;;;;;4917650;29;20923;-90
2023/08/21 21:21:40;;;;;;;8.70;7.30;;;;;;;;;;4917846;29;20471;-90
2023/08/21 21:24:06;;;;;;;11.63;8.10;;;;;;;;;;4946553;28;20437;-91
2023/08/21 21:26:32;;;;;;;10.43;7.73;;;;;;;;;;4970160;28;20430;-91
2023/08/21 21:29:00;;;;;;;9.50;8.20;;;;;;;;;;4966123;28;20448;-90
2023/08/21 21:31:26;;;;;;;10.77;8.00;;;;;;;;;;4971923;28;20457;-91
2023/08/21 21:33:53;;;;;;;10.43;7.10;;;;;;;;;;4968394;28;20440;-89
2023/08/21 21:36:19;;;;;;;9.97;7.20;;;;;;;;;;4966539;28;20489;-91
2023/08/21 21:38:45;;;;;;;8.30;7.10;;;;;;;;;;4963122;28;20503;-91
2023/08/21 21:41:11;;;;;;;7.77;6.93;;;;;;;;;;4992666;28;20943;-90
2023/08/21 21:43:37;;;;;;;9.07;6.40;;;;;;;;;;4970109;28;20436;-90
2023/08/21 21:46:04;;;;;;;9.17;7.07;;;;;;;;;;4968267;28;20435;-91
2023/08/21 21:48:30;;;;;;;8.17;6.83;;;;;;;;;;4964089;28;20516;-90
2023/08/21 21:50:57;;;;;;;7.97;6.90;;;;;;;;;;4985771;28;20448;-90
2023/08/21 21:53:26;;;;;;;7.60;6.67;;;;;;;;;;4961430;28;20433;-91
2023/08/21 21:55:52;;;;;;;8.90;6.30;;;;;;;;;;4983736;28;20461;-90
2023/08/21 21:58:18;;;;;;;9.33;6.90;;;;;;;;;;4966828;28;20495;-90
2023/08/21 22:00:44;;;;;;;8.50;7.53;;;;;;;;;;4981918;28;20472;-90
2023/08/21 22:03:10;;;;;;;10.20;6.30;;;;;;;;;;4971945;28;20445;-91
2023/08/21 22:05:38;;;;;;;6.20;5.40;;;;;;;;;;4959449;28;20525;-92
2023/08/21 22:08:04;;;;;;;7.13;6.30;;;;;;;;;;4981434;28;20431;-91
2023/08/21 22:10:31;;;;;;;8.60;6.93;;;;;;;;;;4973111;28;21330;-92
2023/08/21 22:12:57;;;;;;;11.53;7.83;;;;;;;;;;4976471;28;20450;-91
2023/08/21 22:15:45;;;;;;;10.63;7.40;;;;;;;;;;4974013;28;20520;-92
2023/08/21 22:18:11;;;;;;;7.27;6.57;;;;;;;;;;4945298;29;20748;-91
2023/08/21 22:20:37;;;;;;;8.33;5.60;;;;;;;;;;4931887;29;20455;-91
2023/08/21 22:23:07;;;;;;;7.80;7.00;;;;;;;;;;4951525;28;20436;-92
2023/08/21 22:25:33;;;;;;;7.43;6.20;;;;;;;;;;4934427;28;20403;-91
2023/08/21 22:27:59;;;;;;;9.13;6.93;;;;;;;;;;4944395;28;20437;-91
2023/08/21 22:30:26;;;;;;;9.47;7.60;;;;;;;;;;4921526;29;20440;-91
2023/08/21 22:32:55;;;;;;;7.40;6.40;;;;;;;;;;4936416;29;20454;-91
2023/08/21 22:35:21;;;;;;;7.50;6.67;;;;;;;;;;4948674;29;20510;-91
2023/08/21 22:37:52;;;;;;;8.57;7.50;;;;;;;;;;4918996;29;20447;-91
2023/08/21 22:40:33;;;;;;;7.70;6.57;;;;;;;;;;4939242;28;20465;-91
2023/08/21 22:43:10;;;;;;;10.83;7.80;;;;;;;;;;4930938;29;20427;-91
2023/08/21 22:45:39;;;;;;;10.67;7.97;;;;;;;;;;4932238;29;20499;-92
2023/08/21 22:48:06;;;;;;;13.07;7.67;;;;;;;;;;4933931;29;20427;-91